Time;durP1;ratioP1;P1;durP2;ratioP2;P2;SDS_P1;SDS_P2;PMS_P1;PMS_P2;Temp;Humidity;BMP_temperature;BMP_pressure;BME280_temperature;BME280_humidity;BME280_pressure;Samples;Min_cycle;Max_cycle;Signal;HPM_P1;HPM_P2
2024/01/26 00:02:24;;;;;;;12.93;5.90;;;9.70;99.90;;;;;;4953023;28;20491;-75
2024/01/26 00:04:50;;;;;;;13.52;6.32;;;9.70;99.90;;;;;;4970152;28;20051;-75
2024/01/26 00:07:15;;;;;;;10.20;4.90;;;9.70;99.90;;;;;;4959018;28;20038;-74
2024/01/26 00:09:41;;;;;;;12.80;6.30;;;9.70;99.90;;;;;;4977402;28;20042;-71
2024/01/26 00:12:07;;;;;;;11.57;5.55;;;9.70;99.90;;;;;;4970527;28;20030;-71
2024/01/26 00:14:32;;;;;;;9.80;5.22;;;9.80;99.90;;;;;;4969864;28;21398;-73
2024/01/26 00:16:58;;;;;;;10.93;6.22;;;9.70;99.90;;;;;;4962523;28;20039;-74
2024/01/26 00:19:23;;;;;;;11.48;5.38;;;9.80;99.90;;;;;;4952296;28;20513;-74
2024/01/26 00:21:49;;;;;;;8.70;4.78;;;9.80;99.90;;;;;;4952633;28;20039;-74
2024/01/26 00:24:14;;;;;;;9.57;4.68;;;9.70;99.90;;;;;;4959712;28;20474;-73
2024/01/26 00:26:40;;;;;;;10.93;4.78;;;9.70;99.90;;;;;;4960488;28;20589;-72
2024/01/26 00:29:06;;;;;;;10.00;4.30;;;9.70;99.90;;;;;;4952840;28;20043;-71
2024/01/26 00:31:32;;;;;;;7.80;4.40;;;9.80;99.90;;;;;;4952301;28;20035;-76
2024/01/26 00:33:57;;;;;;;8.80;4.55;;;9.80;99.90;;;;;;4970506;28;20026;-74
2024/01/26 00:36:23;;;;;;;11.63;4.57;;;9.80;99.90;;;;;;4980824;28;20042;-75
2024/01/26 00:38:48;;;;;;;12.93;4.53;;;9.80;99.90;;;;;;4974783;28;20046;-74
2024/01/26 00:41:14;;;;;;;9.77;4.60;;;9.80;99.90;;;;;;4952872;28;20034;-75
2024/01/26 00:43:39;;;;;;;8.75;4.60;;;9.80;99.90;;;;;;4952377;28;20047;-74
2024/01/26 00:46:05;;;;;;;9.02;4.40;;;9.80;99.90;;;;;;4969112;28;20045;-75
2024/01/26 00:48:30;;;;;;;6.32;3.65;;;9.80;99.90;;;;;;4950058;28;20038;-75
2024/01/26 00:50:56;;;;;;;7.35;4.00;;;9.80;99.90;;;;;;4962700;28;20053;-74
2024/01/26 00:53:22;;;;;;;11.52;4.55;;;9.80;99.90;;;;;;4953068;28;20110;-75
2024/01/26 00:55:48;;;;;;;6.50;4.20;;;9.80;99.90;;;;;;4960174;28;20046;-75
2024/01/26 00:58:14;;;;;;;9.52;4.50;;;9.80;99.90;;;;;;4971454;28;20069;-74
2024/01/26 01:00:39;;;;;;;6.30;3.85;;;9.80;99.90;;;;;;4969013;28;20037;-74
2024/01/26 01:03:05;;;;;;;12.50;4.30;;;9.80;99.90;;;;;;4958613;28;20053;-75
2024/01/26 01:05:31;;;;;;;11.00;3.97;;;9.80;99.90;;;;;;4968229;28;20062;-73
2024/01/26 01:07:56;;;;;;;8.65;4.40;;;9.80;99.90;;;;;;4954614;28;20043;-74
2024/01/26 01:10:23;;;;;;;8.10;3.55;;;9.80;99.90;;;;;;4968637;28;20050;-74
2024/01/26 01:12:49;;;;;;;8.65;4.13;;;9.80;99.90;;;;;;4957221;28;20041;-73
2024/01/26 01:15:14;;;;;;;7.47;4.57;;;9.80;99.90;;;;;;4971342;28;20047;-75
2024/01/26 01:17:45;;;;;;;10.68;4.78;;;9.80;99.90;;;;;;4951626;28;20032;-70
2024/01/26 01:20:12;;;;;;;9.57;4.40;;;9.80;99.90;;;;;;4975183;28;20376;-74
2024/01/26 01:22:38;;;;;;;8.52;3.80;;;9.80;99.90;;;;;;4970160;28;20058;-74
2024/01/26 01:25:08;;;;;;;12.45;4.95;;;9.90;99.90;;;;;;4957134;28;20031;-75
2024/01/26 01:27:36;;;;;;;7.97;4.38;;;9.90;99.90;;;;;;4961507;28;20163;-74
2024/01/26 01:30:03;;;;;;;10.43;4.57;;;9.90;99.90;;;;;;4953785;28;20035;-75
2024/01/26 01:32:29;;;;;;;9.30;4.15;;;9.90;99.90;;;;;;4962971;28;20058;-73
2024/01/26 01:34:54;;;;;;;8.70;4.22;;;9.90;99.90;;;;;;4955318;28;20065;-77
2024/01/26 01:37:20;;;;;;;7.38;3.38;;;9.90;99.90;;;;;;4951375;28;20058;-75
2024/01/26 01:39:46;;;;;;;8.55;3.50;;;9.90;99.90;;;;;;4953716;28;20030;-75
2024/01/26 01:42:14;;;;;;;6.85;3.50;;;10.00;99.90;;;;;;4963060;28;20081;-73
2024/01/26 01:44:43;;;;;;;7.65;3.70;;;10.00;99.90;;;;;;4964386;28;20039;-74
2024/01/26 01:47:10;;;;;;;5.85;3.00;;;10.00;99.90;;;;;;4951807;28;20035;-74
2024/01/26 01:49:39;;;;;;;5.93;2.97;;;10.00;99.90;;;;;;4968566;28;20402;-75
2024/01/26 01:52:17;;;;;;;8.00;3.23;;;10.00;99.90;;;;;;4968303;28;20031;-75
2024/01/26 01:54:42;;;;;;;7.22;3.28;;;10.00;99.90;;;;;;4951785;28;20058;-75
2024/01/26 01:57:14;;;;;;;6.05;2.88;;;10.00;99.90;;;;;;4968199;28;20055;-75
2024/01/26 01:59:41;;;;;;;5.30;2.75;;;10.00;99.90;;;;;;4968616;28;20037;-74
2024/01/26 02:02:07;;;;;;;5.15;2.70;;;10.00;99.90;;;;;;4970808;28;20060;-73
2024/01/26 02:04:33;;;;;;;5.30;2.90;;;10.00;99.90;;;;;;4959130;28;20037;-75
2024/01/26 02:07:00;;;;;;;5.75;2.95;;;10.00;99.90;;;;;;4959912;28;20035;-75
2024/01/26 02:09:27;;;;;;;4.95;2.55;;;10.00;99.90;;;;;;4975341;28;20026;-71
2024/01/26 02:11:53;;;;;;;6.45;2.88;;;10.00;99.90;;;;;;4951484;28;20035;-73
2024/01/26 02:14:19;;;;;;;5.30;2.83;;;10.00;99.90;;;;;;4950279;28;20031;-75
2024/01/26 02:16:57;;;;;;;3.80;1.83;;;10.10;99.90;;;;;;4951889;28;20031;-74
2024/01/26 02:19:24;;;;;;;6.82;3.13;;;10.10;99.90;;;;;;4969276;28;20041;-74
2024/01/26 02:21:49;;;;;;;7.07;2.40;;;10.10;99.90;;;;;;4966798;28;20473;-72
2024/01/26 02:24:15;;;;;;;3.88;2.47;;;10.10;99.90;;;;;;4969565;28;20129;-73
2024/01/26 02:26:41;;;;;;;4.13;2.30;;;10.10;99.90;;;;;;4972506;28;20371;-75
2024/01/26 02:29:06;;;;;;;4.43;2.30;;;10.10;99.90;;;;;;4959441;28;20580;-76
2024/01/26 02:31:32;;;;;;;4.95;2.50;;;10.10;99.90;;;;;;4953238;28;20395;-74
2024/01/26 02:33:57;;;;;;;8.13;2.00;;;10.20;99.90;;;;;;4962763;28;20026;-74
2024/01/26 02:36:23;;;;;;;7.57;2.30;;;10.20;99.90;;;;;;4966379;28;20035;-74
2024/01/26 02:38:49;;;;;;;9.45;2.95;;;10.10;99.90;;;;;;4967702;28;20098;-74
2024/01/26 02:41:15;;;;;;;7.60;3.13;;;10.20;99.90;;;;;;4974876;28;20035;-71
2024/01/26 02:43:40;;;;;;;7.35;2.75;;;10.20;99.90;;;;;;4975330;28;20498;-74
2024/01/26 02:46:10;;;;;;;9.32;3.05;;;10.30;99.90;;;;;;4968623;28;20027;-71
2024/01/26 02:48:35;;;;;;;5.93;3.25;;;10.30;99.90;;;;;;4962829;28;20376;-74
2024/01/26 02:51:01;;;;;;;7.13;3.90;;;10.30;99.90;;;;;;4954552;28;20086;-74
2024/01/26 02:53:27;;;;;;;6.93;3.50;;;10.30;99.90;;;;;;4971179;28;20038;-75
2024/01/26 02:55:52;;;;;;;6.65;3.70;;;10.30;99.90;;;;;;4971260;28;20154;-73
2024/01/26 02:58:18;;;;;;;6.25;3.33;;;10.40;99.90;;;;;;4958288;28;20027;-74
2024/01/26 03:00:44;;;;;;;9.02;3.55;;;10.40;99.90;;;;;;4950407;28;20041;-74
2024/01/26 03:03:09;;;;;;;8.40;3.47;;;10.40;99.90;;;;;;4954017;28;20089;-75
2024/01/26 03:05:35;;;;;;;8.15;4.38;;;10.50;99.90;;;;;;4953503;28;20030;-74
2024/01/26 03:08:01;;;;;;;6.93;4.28;;;10.50;99.90;;;;;;4954776;28;20066;-74
2024/01/26 03:10:27;;;;;;;8.68;3.88;;;10.50;99.90;;;;;;4957193;28;20027;-74
2024/01/26 03:12:52;;;;;;;9.52;4.00;;;10.50;99.90;;;;;;4959264;28;20041;-73
2024/01/26 03:15:18;;;;;;;9.32;4.68;;;10.50;99.90;;;;;;4981305;28;20023;-73
2024/01/26 03:17:44;;;;;;;9.48;4.22;;;10.60;99.90;;;;;;4957806;28;20042;-74
2024/01/26 03:20:09;;;;;;;8.85;3.80;;;10.60;99.90;;;;;;4958301;28;20031;-75
2024/01/26 03:22:35;;;;;;;8.50;4.18;;;10.60;99.90;;;;;;4952726;28;20042;-74
2024/01/26 03:25:03;;;;;;;10.70;4.38;;;10.60;99.90;;;;;;4975838;28;20046;-74
2024/01/26 03:27:29;;;;;;;9.18;4.38;;;10.50;99.90;;;;;;4969360;28;20047;-75
2024/01/26 03:29:54;;;;;;;9.75;4.20;;;10.60;99.90;;;;;;4963243;28;20030;-74
2024/01/26 03:32:20;;;;;;;10.65;4.63;;;10.60;99.90;;;;;;4960985;28;20049;-75
2024/01/26 03:34:45;;;;;;;8.82;3.92;;;10.60;99.90;;;;;;4951013;28;20073;-75
2024/01/26 03:37:11;;;;;;;8.50;4.25;;;10.60;99.90;;;;;;4971218;28;20399;-74
2024/01/26 03:39:37;;;;;;;9.63;4.13;;;10.60;99.90;;;;;;4968621;28;20065;-76
2024/01/26 03:42:03;;;;;;;7.10;4.30;;;10.70;99.90;;;;;;4964578;28;20126;-74
2024/01/26 03:44:29;;;;;;;9.05;4.60;;;10.70;99.90;;;;;;4975694;28;20085;-75
2024/01/26 03:46:54;;;;;;;9.55;4.10;;;10.70;99.90;;;;;;4955394;28;20042;-74
2024/01/26 03:49:20;;;;;;;8.52;4.38;;;10.70;99.90;;;;;;4967712;28;20044;-75
2024/01/26 03:51:45;;;;;;;12.48;5.18;;;10.70;99.90;;;;;;4969507;28;20085;-72
2024/01/26 03:54:11;;;;;;;11.85;4.43;;;10.80;99.90;;;;;;4957027;28;20035;-72
2024/01/26 03:56:36;;;;;;;10.05;4.78;;;10.80;99.90;;;;;;4953037;28;20390;-73
2024/01/26 03:59:02;;;;;;;15.65;5.07;;;10.80;99.90;;;;;;4969478;28;20034;-75
2024/01/26 04:01:27;;;;;;;9.40;4.80;;;10.80;99.90;;;;;;4976052;28;20414;-75
2024/01/26 04:03:53;;;;;;;9.30;4.28;;;10.90;99.90;;;;;;4949980;28;20039;-73
2024/01/26 04:06:19;;;;;;;11.27;5.57;;;10.90;99.90;;;;;;4952664;28;20031;-74
2024/01/26 04:08:44;;;;;;;9.27;5.00;;;10.90;99.90;;;;;;4949820;28;20039;-74
2024/01/26 04:11:10;;;;;;;10.27;5.22;;;10.90;99.90;;;;;;4968282;28;20034;-75
2024/01/26 04:13:35;;;;;;;13.10;4.88;;;10.90;99.90;;;;;;4956677;28;20600;-75
2024/01/26 04:16:01;;;;;;;9.85;5.30;;;11.00;99.90;;;;;;4957107;28;20031;-73
2024/01/26 04:18:27;;;;;;;10.43;5.15;;;10.90;99.90;;;;;;4949835;28;20037;-73
2024/01/26 04:20:52;;;;;;;14.38;5.82;;;10.90;99.90;;;;;;4950223;28;20134;-74
2024/01/26 04:23:18;;;;;;;10.43;5.00;;;10.90;99.90;;;;;;4951948;28;20582;-73
2024/01/26 04:25:43;;;;;;;14.68;5.90;;;10.90;99.90;;;;;;4949996;28;20118;-71
2024/01/26 04:28:09;;;;;;;11.85;6.10;;;10.90;99.90;;;;;;4943840;28;20031;-76
2024/01/26 04:30:35;;;;;;;14.23;5.45;;;10.90;99.90;;;;;;4951472;28;20062;-74
2024/01/26 04:33:01;;;;;;;9.07;5.03;;;10.90;99.90;;;;;;4970162;28;20039;-75
2024/01/26 04:35:26;;;;;;;12.23;5.95;;;10.90;99.90;;;;;;4956813;28;20038;-76
2024/01/26 04:37:52;;;;;;;8.90;4.97;;;10.90;99.90;;;;;;4956288;28;20093;-75
2024/01/26 04:40:19;;;;;;;12.38;5.88;;;10.90;99.90;;;;;;4971249;28;20662;-72
2024/01/26 04:42:44;;;;;;;14.90;5.90;;;10.90;99.90;;;;;;4953072;28;20101;-70
2024/01/26 04:45:10;;;;;;;14.30;6.70;;;10.90;99.90;;;;;;4970104;28;20483;-74
2024/01/26 04:47:35;;;;;;;10.77;5.70;;;10.90;99.90;;;;;;4970071;28;20528;-75
2024/01/26 04:50:01;;;;;;;14.45;5.32;;;10.90;99.90;;;;;;4978162;28;20077;-73
2024/01/26 04:52:26;;;;;;;13.23;5.28;;;10.90;99.90;;;;;;4971096;28;20031;-75
2024/01/26 04:54:52;;;;;;;15.02;5.90;;;10.90;99.90;;;;;;4968792;28;20027;-75
2024/01/26 04:57:18;;;;;;;14.80;6.60;;;10.80;99.90;;;;;;4979666;28;20057;-72
2024/01/26 04:59:44;;;;;;;12.52;6.43;;;10.80;99.90;;;;;;4961736;28;20042;-75
2024/01/26 05:02:10;;;;;;;15.63;6.43;;;10.80;99.90;;;;;;4971904;28;20034;-73
2024/01/26 05:04:36;;;;;;;13.55;6.38;;;10.70;99.90;;;;;;4962923;28;20066;-72
2024/01/26 05:07:01;;;;;;;16.00;6.10;;;10.70;99.90;;;;;;4990456;28;20165;-74
2024/01/26 05:09:28;;;;;;;14.93;6.95;;;10.70;99.90;;;;;;4955080;28;20035;-74
2024/01/26 05:11:54;;;;;;;17.38;6.75;;;10.70;99.90;;;;;;4969980;28;20035;-74
2024/01/26 05:14:21;;;;;;;12.40;6.95;;;10.70;99.90;;;;;;4952917;28;20043;-74
2024/01/26 05:16:47;;;;;;;14.43;7.22;;;10.70;99.90;;;;;;4951259;28;20042;-74
2024/01/26 05:19:12;;;;;;;13.48;6.57;;;10.70;99.90;;;;;;4957708;28;20026;-75
2024/01/26 05:21:40;;;;;;;15.13;7.70;;;10.70;99.90;;;;;;4952515;28;20043;-74
2024/01/26 05:24:06;;;;;;;14.50;6.75;;;10.70;99.90;;;;;;4958156;28;20050;-75
2024/01/26 05:26:31;;;;;;;14.88;6.20;;;10.70;99.90;;;;;;4959861;28;20030;-74
2024/01/26 05:28:57;;;;;;;15.80;7.35;;;10.70;99.90;;;;;;4952380;28;20035;-76
2024/01/26 05:31:22;;;;;;;18.83;7.95;;;10.70;99.90;;;;;;4968297;28;20057;-75
2024/01/26 05:33:48;;;;;;;15.60;7.15;;;10.70;99.90;;;;;;4956175;28;20043;-75
2024/01/26 05:36:13;;;;;;;15.10;6.82;;;10.70;99.90;;;;;;4969567;28;20035;-74
2024/01/26 05:38:39;;;;;;;14.48;7.90;;;10.70;99.90;;;;;;4955590;28;20038;-75
2024/01/26 05:41:04;;;;;;;13.98;7.13;;;10.70;99.90;;;;;;4951576;28;20099;-73
2024/01/26 05:43:30;;;;;;;15.70;7.78;;;10.70;99.90;;;;;;4950996;28;20062;-74
2024/01/26 05:45:55;;;;;;;12.73;6.32;;;10.60;99.90;;;;;;4951934;28;20041;-75
2024/01/26 05:48:21;;;;;;;18.80;7.55;;;10.70;99.90;;;;;;4967042;28;20108;-75
2024/01/26 05:50:47;;;;;;;15.85;6.93;;;10.70;99.90;;;;;;4971525;28;20129;-75
2024/01/26 05:53:13;;;;;;;13.18;6.28;;;10.70;99.90;;;;;;4966752;28;20034;-75
2024/01/26 05:55:38;;;;;;;17.58;7.05;;;10.70;99.90;;;;;;4957263;28;20042;-75
2024/01/26 05:58:04;;;;;;;12.70;6.60;;;10.60;99.90;;;;;;4951184;28;20039;-72
2024/01/26 06:00:30;;;;;;;14.65;7.68;;;10.70;99.90;;;;;;4950673;28;20050;-75
2024/01/26 06:02:55;;;;;;;12.30;6.90;;;10.70;99.90;;;;;;4945814;28;20391;-74
2024/01/26 06:05:21;;;;;;;14.77;6.35;;;10.70;99.90;;;;;;4950357;28;20031;-75
2024/01/26 06:07:47;;;;;;;14.00;6.65;;;10.70;99.90;;;;;;4954833;28;20035;-73
2024/01/26 06:10:13;;;;;;;12.55;6.50;;;10.70;99.90;;;;;;4967089;28;20035;-75
2024/01/26 06:12:40;;;;;;;10.40;6.03;;;10.70;99.90;;;;;;4949689;28;20045;-75
2024/01/26 06:15:10;;;;;;;13.48;6.07;;;10.70;99.90;;;;;;4951154;28;20026;-74
2024/01/26 06:17:35;;;;;;;11.80;6.32;;;10.70;99.90;;;;;;4968645;28;20490;-71
2024/01/26 06:20:04;;;;;;;11.95;6.03;;;10.70;99.90;;;;;;4962481;28;20035;-71
2024/01/26 06:22:30;;;;;;;10.63;5.78;;;10.70;99.90;;;;;;4961401;28;20751;-73
2024/01/26 06:24:56;;;;;;;11.93;6.13;;;10.70;99.90;;;;;;4987341;28;20038;-73
2024/01/26 06:27:21;;;;;;;10.32;5.82;;;10.70;99.90;;;;;;4979142;28;20104;-72
2024/01/26 06:29:47;;;;;;;11.93;6.25;;;10.60;99.90;;;;;;4967352;28;20105;-72
2024/01/26 06:32:12;;;;;;;10.60;5.15;;;10.60;99.90;;;;;;4968041;28;20035;-74
2024/01/26 06:34:40;;;;;;;10.27;6.10;;;10.60;99.90;;;;;;4976683;28;20026;-72
2024/01/26 06:37:05;;;;;;;11.95;5.80;;;10.60;99.90;;;;;;4980928;28;20035;-72
2024/01/26 06:39:33;;;;;;;11.05;6.03;;;10.60;99.90;;;;;;4957947;28;20085;-73
2024/01/26 06:41:58;;;;;;;9.18;5.55;;;10.60;99.90;;;;;;4980342;28;20029;-71
2024/01/26 06:44:24;;;;;;;9.60;5.40;;;10.70;99.90;;;;;;4961856;28;20051;-72
2024/01/26 06:46:49;;;;;;;9.80;6.28;;;10.70;99.90;;;;;;4967598;28;20179;-73
2024/01/26 06:49:15;;;;;;;10.55;5.80;;;10.70;99.90;;;;;;4967559;28;20042;-73
2024/01/26 06:51:40;;;;;;;9.48;5.15;;;10.70;99.90;;;;;;4961424;28;20070;-72
2024/01/26 06:54:06;;;;;;;11.25;5.38;;;10.70;99.90;;;;;;4967404;28;20097;-73
2024/01/26 06:56:31;;;;;;;9.48;5.13;;;10.70;99.90;;;;;;4960437;28;20041;-72
2024/01/26 06:58:57;;;;;;;10.38;4.50;;;10.70;99.90;;;;;;4982257;28;20427;-72
2024/01/26 07:01:23;;;;;;;8.07;5.18;;;10.80;99.90;;;;;;4986915;28;20113;-72
2024/01/26 07:03:48;;;;;;;8.02;4.63;;;10.80;99.90;;;;;;4974170;28;20078;-73
2024/01/26 07:06:14;;;;;;;9.75;4.38;;;10.90;99.90;;;;;;4953105;28;20043;-73
2024/01/26 07:08:40;;;;;;;6.65;4.03;;;10.80;99.90;;;;;;4957420;28;20065;-74
2024/01/26 07:11:06;;;;;;;10.27;4.93;;;10.90;99.90;;;;;;4969421;28;20046;-73
2024/01/26 07:13:31;;;;;;;8.35;4.38;;;10.90;99.90;;;;;;4966618;28;20043;-72
2024/01/26 07:15:57;;;;;;;7.53;4.82;;;10.90;99.90;;;;;;4967422;28;20438;-72
2024/01/26 07:18:22;;;;;;;10.82;4.22;;;10.90;99.90;;;;;;4957041;28;20148;-72
2024/01/26 07:20:48;;;;;;;9.00;4.63;;;10.90;99.90;;;;;;4956745;28;20057;-72
2024/01/26 07:23:13;;;;;;;9.43;4.65;;;10.90;99.90;;;;;;4967150;28;20074;-72
2024/01/26 07:25:39;;;;;;;10.38;4.35;;;10.90;99.90;;;;;;4949702;28;20821;-72
2024/01/26 07:28:07;;;;;;;10.48;4.40;;;10.90;99.90;;;;;;4973155;28;20031;-72
2024/01/26 07:30:32;;;;;;;7.93;4.15;;;11.00;99.90;;;;;;4967323;28;20037;-72
2024/01/26 07:32:59;;;;;;;9.05;4.68;;;10.90;99.90;;;;;;4975074;28;20027;-72
2024/01/26 07:35:24;;;;;;;10.23;4.05;;;10.90;99.90;;;;;;4966831;28;20475;-73
2024/01/26 07:37:50;;;;;;;7.70;3.97;;;11.00;99.90;;;;;;4967291;28;20046;-73
2024/01/26 07:40:16;;;;;;;9.68;4.10;;;11.00;99.90;;;;;;4955390;28;20038;-73
2024/01/26 07:42:42;;;;;;;9.18;4.13;;;10.90;99.90;;;;;;4979178;28;20039;-73
2024/01/26 07:45:08;;;;;;;6.90;4.00;;;10.90;99.90;;;;;;4954752;28;20042;-73
2024/01/26 07:47:36;;;;;;;9.63;3.88;;;10.90;99.90;;;;;;4979731;28;20037;-74
2024/01/26 07:50:03;;;;;;;11.40;4.78;;;10.90;99.90;;;;;;4956798;28;20122;-72
2024/01/26 07:52:28;;;;;;;7.03;4.18;;;11.00;99.90;;;;;;4949049;28;20506;-73
2024/01/26 07:54:54;;;;;;;8.35;4.18;;;10.90;99.90;;;;;;4969180;28;20046;-73
2024/01/26 07:57:21;;;;;;;10.95;3.95;;;10.90;99.90;;;;;;4959146;28;20039;-73
2024/01/26 07:59:48;;;;;;;7.93;3.72;;;11.00;99.90;;;;;;4965615;28;20038;-74
2024/01/26 08:02:13;;;;;;;6.47;3.65;;;11.00;99.90;;;;;;4951355;28;20078;-73
2024/01/26 08:04:39;;;;;;;8.73;4.50;;;11.00;99.90;;;;;;4967790;28;20128;-74
2024/01/26 08:07:05;;;;;;;10.88;4.90;;;11.00;99.90;;;;;;4948106;28;20046;-73
2024/01/26 08:09:30;;;;;;;14.60;4.32;;;11.00;99.90;;;;;;4951092;28;20038;-73
2024/01/26 08:11:56;;;;;;;9.65;4.38;;;11.00;99.90;;;;;;4946476;28;20546;-74
2024/01/26 08:14:21;;;;;;;9.35;3.83;;;11.00;99.90;;;;;;4948636;28;20075;-73
2024/01/26 08:16:47;;;;;;;8.88;3.90;;;11.10;99.90;;;;;;4951945;28;20027;-74
2024/01/26 08:19:12;;;;;;;15.85;3.60;;;11.00;99.90;;;;;;4949736;28;20031;-73
2024/01/26 08:21:38;;;;;;;11.88;3.22;;;11.00;99.90;;;;;;4969067;28;20027;-73
2024/01/26 08:24:04;;;;;;;10.55;2.60;;;11.00;99.90;;;;;;4956603;28;20552;-74
2024/01/26 08:26:30;;;;;;;7.90;2.45;;;11.10;99.90;;;;;;4957103;28;20483;-74
2024/01/26 08:28:55;;;;;;;6.82;2.47;;;11.00;99.90;;;;;;4959261;28;20041;-74
2024/01/26 08:31:21;;;;;;;8.60;2.80;;;11.00;99.90;;;;;;4970921;28;20030;-75
2024/01/26 08:33:47;;;;;;;18.00;3.03;;;11.00;99.90;;;;;;4957275;28;20487;-74
2024/01/26 08:36:13;;;;;;;6.72;2.25;;;11.00;99.90;;;;;;4979598;28;20031;-73
2024/01/26 08:38:38;;;;;;;5.85;1.90;;;11.00;99.90;;;;;;4974236;28;20109;-75
2024/01/26 08:41:07;;;;;;;9.40;1.10;;;11.00;99.90;;;;;;4969143;28;20058;-74
2024/01/26 08:43:33;;;;;;;3.83;1.00;;;11.00;99.90;;;;;;4960909;28;20114;-74
2024/01/26 08:45:59;;;;;;;11.98;1.23;;;11.00;99.90;;;;;;4970179;28;20039;-74
2024/01/26 08:48:25;;;;;;;9.27;2.72;;;10.90;99.90;;;;;;4970030;28;20038;-74
2024/01/26 08:50:50;;;;;;;11.45;1.20;;;10.90;99.90;;;;;;4951318;28;20044;-74
2024/01/26 08:53:16;;;;;;;14.88;2.05;;;10.80;99.90;;;;;;4960173;28;20039;-75
2024/01/26 08:55:42;;;;;;;7.07;1.40;;;10.80;99.90;;;;;;4969941;28;20039;-74
2024/01/26 08:58:08;;;;;;;8.23;1.83;;;10.80;99.90;;;;;;4950794;28;20038;-74
2024/01/26 09:00:34;;;;;;;11.18;1.83;;;10.70;99.90;;;;;;4978430;28;20380;-75
2024/01/26 09:03:00;;;;;;;7.60;1.50;;;10.60;99.90;;;;;;4969289;28;20833;-74
2024/01/26 09:05:25;;;;;;;6.65;1.95;;;10.40;99.90;;;;;;4951446;28;20059;-73
2024/01/26 09:07:51;;;;;;;8.80;0.73;;;10.40;99.90;;;;;;4951509;28;20510;-74
2024/01/26 09:10:19;;;;;;;5.57;0.60;;;10.20;99.90;;;;;;4967777;28;20019;-73
2024/01/26 09:12:44;;;;;;;6.97;0.82;;;10.10;99.90;;;;;;4970116;28;20566;-74
2024/01/26 09:15:10;;;;;;;10.60;1.33;;;10.00;99.90;;;;;;4956924;28;20185;-73
2024/01/26 09:17:37;;;;;;;13.50;2.08;;;10.00;99.90;;;;;;4974016;28;20031;-73
2024/01/26 09:20:03;;;;;;;10.45;1.30;;;9.90;99.90;;;;;;4973824;28;20031;-73
2024/01/26 09:22:29;;;;;;;16.92;0.95;;;9.90;99.90;;;;;;4950943;28;20034;-75
2024/01/26 09:24:54;;;;;;;14.10;3.10;;;9.70;99.90;;;;;;4971936;28;20046;-73
2024/01/26 09:27:21;;;;;;;5.55;0.82;;;9.50;99.90;;;;;;4949933;28;20499;-74
2024/01/26 09:29:47;;;;;;;9.00;0.80;;;9.30;99.90;;;;;;4967444;28;20066;-74
2024/01/26 09:32:13;;;;;;;8.02;0.80;;;9.10;99.90;;;;;;4965138;28;20074;-74
2024/01/26 09:34:38;;;;;;;19.35;1.17;;;9.00;99.90;;;;;;4960402;28;20042;-74
2024/01/26 09:37:04;;;;;;;12.55;1.75;;;8.80;99.90;;;;;;4967109;28;20034;-74
2024/01/26 09:39:29;;;;;;;6.95;0.85;;;8.80;99.90;;;;;;4985741;28;20042;-74
2024/01/26 09:41:55;;;;;;;13.57;1.33;;;8.70;99.90;;;;;;4963810;28;20030;-74
2024/01/26 09:44:21;;;;;;;6.97;1.00;;;8.70;99.90;;;;;;4980335;28;20027;-75
2024/01/26 09:46:47;;;;;;;3.70;0.75;;;8.60;99.90;;;;;;4955075;28;20142;-74
2024/01/26 09:49:14;;;;;;;6.45;0.80;;;8.60;99.90;;;;;;4982407;28;20169;-74
2024/01/26 09:51:40;;;;;;;8.95;2.15;;;8.60;99.90;;;;;;4976761;28;20035;-75
2024/01/26 09:54:08;;;;;;;6.63;1.38;;;8.60;99.90;;;;;;4952000;28;20123;-74
2024/01/26 09:56:36;;;;;;;7.72;1.05;;;8.60;99.90;;;;;;4969656;28;20031;-76
2024/01/26 09:59:03;;;;;;;12.00;2.30;;;8.60;99.90;;;;;;4952071;28;20030;-75
2024/01/26 10:01:31;;;;;;;7.53;0.88;;;8.60;99.90;;;;;;4951716;28;20039;-73
2024/01/26 10:03:56;;;;;;;15.50;2.80;;;8.60;99.90;;;;;;4955948;28;20043;-73
2024/01/26 10:06:23;;;;;;;7.85;1.15;;;8.70;99.90;;;;;;4971625;28;20508;-74
2024/01/26 10:08:48;;;;;;;6.50;0.45;;;8.70;99.90;;;;;;4980331;28;20042;-74
2024/01/26 10:11:14;;;;;;;9.15;0.80;;;8.80;99.90;;;;;;4947860;28;20031;-74
2024/01/26 10:13:39;;;;;;;14.55;1.55;;;8.80;99.90;;;;;;4953551;28;20053;-73
2024/01/26 10:16:10;;;;;;;5.05;0.80;;;8.90;99.90;;;;;;4975557;28;20128;-74
2024/01/26 10:18:47;;;;;;;6.50;0.85;;;8.80;99.90;;;;;;4956256;28;20750;-74
2024/01/26 10:21:14;;;;;;;6.75;0.73;;;8.90;99.90;;;;;;4951257;28;20031;-73
2024/01/26 10:23:40;;;;;;;5.32;0.50;;;8.90;99.90;;;;;;4955214;28;20031;-74
2024/01/26 10:26:06;;;;;;;5.85;0.80;;;8.90;99.90;;;;;;4971543;28;20026;-74
2024/01/26 10:28:32;;;;;;;12.02;1.08;;;9.00;99.90;;;;;;4949450;28;20038;-73
2024/01/26 10:30:58;;;;;;;5.20;0.60;;;9.00;99.90;;;;;;4955251;28;20031;-73
2024/01/26 10:33:24;;;;;;;4.95;0.98;;;9.00;99.90;;;;;;4973229;28;20062;-73
2024/01/26 10:36:00;;;;;;;7.55;1.42;;;8.90;99.90;;;;;;4967431;28;20046;-73
2024/01/26 10:38:29;;;;;;;12.48;0.90;;;8.90;99.90;;;;;;4967344;28;20058;-73
2024/01/26 10:41:04;;;;;;;6.05;0.80;;;8.90;99.90;;;;;;4970817;28;20030;-72
2024/01/26 10:43:31;;;;;;;5.40;1.02;;;9.00;99.90;;;;;;4965128;28;20050;-72
2024/01/26 10:45:57;;;;;;;9.57;0.82;;;9.00;99.90;;;;;;4952993;28;20031;-74
2024/01/26 10:48:25;;;;;;;11.73;1.65;;;8.90;99.90;;;;;;4967227;28;20035;-74
2024/01/26 10:50:50;;;;;;;5.80;1.30;;;8.90;99.90;;;;;;4950258;28;20057;-72
2024/01/26 10:53:17;;;;;;;14.90;1.65;;;9.00;99.90;;;;;;4943834;28;20499;-73
2024/01/26 10:55:44;;;;;;;9.07;1.65;;;9.00;99.90;;;;;;4950714;28;20089;-74
2024/01/26 10:58:10;;;;;;;12.35;0.85;;;9.00;99.90;;;;;;4969773;28;20046;-73
2024/01/26 11:00:35;;;;;;;9.32;1.15;;;9.00;99.90;;;;;;4954876;28;20104;-75
2024/01/26 11:03:03;;;;;;;6.60;0.88;;;9.00;99.90;;;;;;4950220;28;20042;-74
2024/01/26 11:05:29;;;;;;;10.85;1.10;;;9.00;99.90;;;;;;4952161;28;20520;-73
2024/01/26 11:07:55;;;;;;;9.73;1.42;;;8.90;99.90;;;;;;4968157;28;20038;-73
2024/01/26 11:10:24;;;;;;;12.50;1.20;;;8.90;99.90;;;;;;4952810;28;20100;-74
2024/01/26 11:13:06;;;;;;;7.63;1.27;;;9.10;99.90;;;;;;4972304;28;20043;-73
2024/01/26 11:15:34;;;;;;;9.68;1.23;;;9.30;99.90;;;;;;4971409;28;20030;-74
2024/01/26 11:18:01;;;;;;;13.07;1.42;;;9.40;99.90;;;;;;4955111;28;20039;-73
2024/01/26 11:20:30;;;;;;;6.68;1.90;;;9.50;99.90;;;;;;4963104;28;20084;-73
2024/01/26 11:23:06;;;;;;;16.17;1.40;;;9.40;99.90;;;;;;4951001;28;20050;-73
2024/01/26 11:25:45;;;;;;;14.48;2.40;;;9.30;99.90;;;;;;4969733;28;20023;-73
2024/01/26 11:28:15;;;;;;;11.20;1.00;;;9.20;99.90;;;;;;4968323;28;20045;-74
2024/01/26 11:30:40;;;;;;;11.52;0.98;;;9.20;99.90;;;;;;4968045;28;20031;-75
2024/01/26 11:33:17;;;;;;;7.78;1.27;;;9.20;99.90;;;;;;4960160;28;20146;-74
2024/01/26 11:35:43;;;;;;;6.78;2.92;;;9.40;99.90;;;;;;4975741;28;20482;-73
2024/01/26 11:38:09;;;;;;;10.07;1.13;;;9.70;99.90;;;;;;4952199;28;20081;-74
2024/01/26 11:40:35;;;;;;;9.90;1.15;;;9.80;99.90;;;;;;4947741;28;20026;-75
2024/01/26 11:43:00;;;;;;;9.18;2.05;;;9.80;99.90;;;;;;4972679;28;20047;-73
2024/01/26 11:45:56;;;;;;;7.55;1.45;;;9.70;99.90;;;;;;4952556;28;20054;-74
2024/01/26 11:48:21;;;;;;;16.65;1.35;;;9.40;99.90;;;;;;4952218;28;20035;-73
2024/01/26 11:50:48;;;;;;;17.85;1.40;;;9.40;99.90;;;;;;4969853;28;20035;-73
2024/01/26 11:53:15;;;;;;;9.63;1.17;;;9.30;99.90;;;;;;4958573;28;20034;-73
2024/01/26 11:55:42;;;;;;;9.65;0.85;;;9.20;99.90;;;;;;4960279;28;20106;-74
2024/01/26 11:58:09;;;;;;;13.63;2.25;;;9.30;99.90;;;;;;4972716;28;20467;-74
2024/01/26 12:00:35;;;;;;;15.07;2.58;;;9.20;99.90;;;;;;4974532;28;20058;-76
2024/01/26 12:03:05;;;;;;;11.23;2.05;;;9.20;99.90;;;;;;4961455;28;20101;-73
2024/01/26 12:05:32;;;;;;;14.65;3.92;;;9.20;99.90;;;;;;4956178;28;20193;-75
2024/01/26 12:07:59;;;;;;;17.10;1.65;;;9.20;99.90;;;;;;4972736;28;20124;-73
2024/01/26 12:10:25;;;;;;;10.48;1.35;;;9.30;99.90;;;;;;4959398;28;20026;-73
2024/01/26 12:12:51;;;;;;;6.93;1.48;;;9.30;99.90;;;;;;4967546;28;20050;-73
2024/01/26 12:15:17;;;;;;;8.57;1.67;;;9.40;99.90;;;;;;4956035;28;20567;-75
2024/01/26 12:17:42;;;;;;;8.70;1.17;;;9.40;99.90;;;;;;4957204;28;20061;-73
2024/01/26 12:20:09;;;;;;;12.80;1.42;;;9.40;99.90;;;;;;4980498;28;20384;-74
2024/01/26 12:22:36;;;;;;;5.30;1.05;;;9.40;99.90;;;;;;4976333;28;20049;-75
2024/01/26 12:25:04;;;;;;;11.75;1.25;;;9.40;99.90;;;;;;4981114;28;20038;-74
2024/01/26 12:27:30;;;;;;;4.97;1.00;;;9.40;99.90;;;;;;4968446;28;20031;-73
2024/01/26 12:29:55;;;;;;;10.18;1.25;;;9.40;99.90;;;;;;4981496;28;20038;-74
2024/01/26 12:32:21;;;;;;;12.23;1.42;;;9.30;99.90;;;;;;4981101;28;20035;-74
2024/01/26 12:34:47;;;;;;;17.20;2.53;;;9.40;99.90;;;;;;4955669;28;20030;-74
2024/01/26 12:37:12;;;;;;;5.75;0.90;;;9.40;99.90;;;;;;4974876;28;20082;-73
2024/01/26 12:39:38;;;;;;;11.50;1.15;;;9.30;99.90;;;;;;4984701;28;20422;-74
2024/01/26 12:42:04;;;;;;;9.85;1.63;;;9.40;99.90;;;;;;4976265;28;20039;-74